createdAt,value
2023-05-23T00:00:29.815Z,101937.81
2023-05-23T00:02:58.219Z,101945.88
2023-05-23T00:05:26.853Z,101938.69
2023-05-23T00:07:56.965Z,101946.63
2023-05-23T00:10:25.457Z,101941.31
2023-05-23T00:12:53.890Z,101940.38
2023-05-23T00:15:22.582Z,101935.09
2023-05-23T00:17:51.291Z,101934.09
2023-05-23T00:20:21.222Z,101933.28
2023-05-23T00:22:49.873Z,101792.53
2023-05-23T00:25:22.017Z,101938.53
2023-05-23T00:27:50.364Z,101948.25
2023-05-23T00:30:18.881Z,101949.91
2023-05-23T00:32:47.202Z,101947.16
2023-05-23T00:35:15.657Z,101951.78
2023-05-23T00:37:43.930Z,101949.00
2023-05-23T00:40:13.444Z,101946.38
2023-05-23T00:42:43.196Z,101950.94
2023-05-23T00:45:12.814Z,101957.97
2023-05-23T00:47:41.784Z,101963.41
2023-05-23T00:50:14.596Z,101958.88
2023-05-23T00:52:44.435Z,101955.25
2023-05-23T00:55:13.869Z,101955.13
2023-05-23T00:57:45.585Z,101951.50
2023-05-23T01:00:15.777Z,101947.91
2023-05-23T01:02:47.993Z,101955.00
2023-05-23T01:05:18.471Z,101952.34
2023-05-23T01:07:47.472Z,101958.41
2023-05-23T01:10:16.975Z,101954.06
2023-05-23T01:13:07.778Z,101950.38
2023-05-23T01:15:43.647Z,101955.63
2023-05-23T01:18:17.777Z,101956.56
2023-05-23T01:20:52.482Z,101937.06
2023-05-23T01:24:17.734Z,101950.25
2023-05-23T01:27:03.065Z,101956.56
2023-05-23T01:29:36.494Z,101950.22
2023-05-23T01:32:11.561Z,101963.69
2023-05-23T01:34:41.282Z,101927.44
2023-05-23T01:37:11.411Z,101957.56
2023-05-23T01:39:40.264Z,101941.66
2023-05-23T01:42:09.812Z,101958.34
2023-05-23T01:44:40.036Z,101959.13
2023-05-23T01:47:10.954Z,101960.03
2023-05-23T01:49:40.371Z,101952.88
2023-05-23T01:52:10.497Z,101936.19
2023-05-23T01:54:42.531Z,101966.25
2023-05-23T01:57:12.158Z,101972.63
2023-05-23T01:59:41.893Z,101979.78
2023-05-23T02:02:10.558Z,101970.97
2023-05-23T02:04:39.019Z,101975.53
2023-05-23T02:07:07.322Z,101976.44
2023-05-23T02:09:35.660Z,101975.53
2023-05-23T02:12:04.017Z,101976.38
2023-05-23T02:14:32.283Z,101973.72
2023-05-23T02:17:01.959Z,101972.78
2023-05-23T02:19:30.392Z,101983.50
2023-05-23T02:21:58.766Z,101980.06
2023-05-23T02:24:27.128Z,101992.47
2023-05-23T02:26:55.616Z,101988.91
2023-05-23T02:29:24.104Z,101972.13
2023-05-23T02:31:52.623Z,101998.78
2023-05-23T02:34:22.425Z,101992.56
2023-05-23T02:36:51.545Z,102011.31
2023-05-23T02:39:19.929Z,102004.22
2023-05-23T02:41:48.266Z,102004.19
2023-05-23T02:44:19.598Z,102005.06
2023-05-23T02:46:48.028Z,102010.38
2023-05-23T02:49:16.436Z,102012.97
2023-05-23T02:51:46.095Z,102011.22
2023-05-23T02:54:14.472Z,102026.31
2023-05-23T02:56:42.772Z,102015.69
2023-05-23T02:59:12.235Z,102031.75
2023-05-23T03:01:40.696Z,102021.97
2023-05-23T03:04:09.139Z,102032.66
2023-05-23T03:06:37.447Z,102030.00
2023-05-23T03:09:07.863Z,102025.81
2023-05-23T03:11:36.215Z,102039.19
2023-05-23T03:14:04.743Z,102033.09
2023-05-23T03:16:33.176Z,102040.13
2023-05-23T03:19:01.637Z,102038.25
2023-05-23T03:21:30.080Z,102036.56
2023-05-23T03:23:58.504Z,102030.41
2023-05-23T03:26:28.202Z,102025.94
2023-05-23T03:28:56.497Z,102037.63
2023-05-23T03:31:24.941Z,102007.44
2023-05-23T03:33:53.737Z,102034.91
2023-05-23T03:36:25.963Z,102027.94
2023-05-23T03:38:54.493Z,102023.47
2023-05-23T03:41:22.821Z,102032.31
2023-05-23T03:43:52.789Z,102034.06
2023-05-23T03:46:21.172Z,102030.47
2023-05-23T03:48:49.534Z,102046.38
2023-05-23T03:51:17.950Z,102051.66
2023-05-23T03:53:46.329Z,102045.50
2023-05-23T03:56:15.642Z,102033.03
2023-05-23T03:58:44.609Z,102055.19
2023-05-23T04:01:17.073Z,102058.88
2023-05-23T04:03:46.448Z,102067.81
2023-05-23T04:06:15.059Z,102070.50
2023-05-23T04:08:45.847Z,102077.53
2023-05-23T04:11:14.163Z,102075.72
2023-05-23T04:13:43.885Z,102076.66
2023-05-23T04:16:12.835Z,102076.75
2023-05-23T04:18:43.477Z,102081.13
2023-05-23T04:21:11.853Z,102076.69
2023-05-23T04:23:48.902Z,102082.00
2023-05-23T04:26:17.688Z,102076.63
2023-05-23T04:28:54.617Z,102087.28
2023-05-23T04:31:26.414Z,102083.72
2023-05-23T04:33:56.279Z,102079.31
2023-05-23T04:36:25.783Z,102087.34
2023-05-23T04:38:56.200Z,102085.66
2023-05-23T04:41:24.707Z,102091.84
2023-05-23T04:44:07.243Z,102097.19
2023-05-23T04:46:42.294Z,102089.22
2023-05-23T04:49:21.464Z,102109.72
2023-05-23T04:51:50.187Z,102047.63
2023-05-23T04:54:22.634Z,102110.53
2023-05-23T04:56:51.334Z,102115.88
2023-05-23T04:59:21.592Z,102111.53
2023-05-23T05:01:49.942Z,102116.84
2023-05-23T05:04:19.723Z,102117.84
2023-05-23T05:06:48.957Z,102119.59
2023-05-23T05:09:18.085Z,102129.31
2023-05-23T05:11:46.426Z,102123.13
2023-05-23T05:14:15.737Z,102129.34
2023-05-23T05:16:46.014Z,102122.22
2023-05-23T05:19:14.501Z,102139.16
2023-05-23T05:21:44.233Z,102134.69
2023-05-23T05:24:12.934Z,102138.19
2023-05-23T05:26:41.280Z,102131.06
2023-05-23T05:29:09.699Z,102139.91
2023-05-23T05:31:38.465Z,102134.56
2023-05-23T05:34:06.834Z,102145.28
2023-05-23T05:36:35.161Z,102134.56
2023-05-23T05:39:06.763Z,102148.78
2023-05-23T05:41:35.073Z,102154.97
2023-05-23T05:44:03.346Z,102151.44
2023-05-23T05:46:31.921Z,102150.53
2023-05-23T05:49:00.357Z,102151.41
2023-05-23T05:51:29.471Z,102146.13
2023-05-23T05:53:57.788Z,102146.94
2023-05-23T05:56:28.093Z,102156.81
2023-05-23T05:58:56.522Z,102152.31
2023-05-23T06:01:26.853Z,102154.97
2023-05-23T06:03:55.425Z,102157.59
2023-05-23T06:06:24.133Z,102162.06
2023-05-23T06:08:53.634Z,102162.13
2023-05-23T06:11:21.935Z,102161.19
2023-05-23T06:13:51.630Z,102166.50
2023-05-23T06:16:20.560Z,102164.72
2023-05-23T06:18:48.993Z,102165.56
2023-05-23T06:21:17.468Z,102173.66
2023-05-23T06:23:50.300Z,102179.84
2023-05-23T06:26:18.729Z,102176.28
2023-05-23T06:28:47.097Z,102182.56
2023-05-23T06:31:16.734Z,102182.59
2023-05-23T06:33:45.124Z,102184.41
2023-05-23T06:36:13.451Z,102176.41
2023-05-23T06:38:41.765Z,102186.16
2023-05-23T06:41:10.106Z,102186.09
2023-05-23T06:43:39.181Z,102180.75
2023-05-23T06:46:25.320Z,102181.63
2023-05-23T06:49:06.488Z,102186.91
2023-05-23T06:51:43.001Z,102146.91
2023-05-23T06:54:11.395Z,102182.38
2023-05-23T06:56:40.032Z,102188.59
2023-05-23T06:59:08.416Z,102189.34
2023-05-23T07:01:38.243Z,102198.19
2023-05-23T07:04:07.000Z,102201.69
2023-05-23T07:06:36.852Z,102201.66
2023-05-23T07:09:07.169Z,102199.94
2023-05-23T07:11:36.912Z,102203.53
2023-05-23T07:14:05.994Z,102195.47
2023-05-23T07:16:47.350Z,102205.25
2023-05-23T07:19:15.795Z,102204.38
2023-05-23T07:21:47.864Z,102215.03
2023-05-23T07:24:18.826Z,102213.25
2023-05-23T07:26:47.214Z,102215.88
2023-05-23T07:29:16.117Z,102176.78
2023-05-23T07:31:48.170Z,102222.94
2023-05-23T07:34:18.576Z,102237.97
2023-05-23T07:36:56.548Z,102227.22
2023-05-23T07:39:27.943Z,102235.16
2023-05-23T07:41:58.061Z,102230.56
2023-05-23T07:44:26.916Z,102227.00
2023-05-23T07:46:57.008Z,102180.94
2023-05-23T07:49:26.034Z,102227.03
2023-05-23T07:51:55.607Z,102236.88
2023-05-23T07:54:23.929Z,102242.97
2023-05-23T07:56:56.569Z,102240.25
2023-05-23T07:59:25.984Z,102235.84
2023-05-23T08:01:54.363Z,102248.03
2023-05-23T08:04:26.141Z,102245.06
2023-05-23T08:09:32.086Z,102240.72
2023-05-23T08:12:00.999Z,102248.38
2023-05-23T08:14:49.135Z,102195.97
2023-05-23T08:17:24.761Z,102252.72
2023-05-23T08:19:55.180Z,102255.44
2023-05-23T08:22:24.328Z,102244.66
2023-05-23T08:24:52.630Z,102262.63
2023-05-23T08:27:21.654Z,102270.78
2023-05-23T08:29:55.721Z,102266.44
2023-05-23T08:32:24.116Z,102274.41
2023-05-23T08:34:53.794Z,102276.13
2023-05-23T08:37:22.412Z,102265.25
2023-05-23T08:39:52.218Z,102270.28
2023-05-23T08:42:39.912Z,102269.94
2023-05-23T08:45:11.738Z,102275.19
2023-05-23T08:47:44.216Z,102274.28
2023-05-23T08:50:16.839Z,102269.75
2023-05-23T08:52:55.998Z,102272.50
2023-05-23T08:55:27.273Z,102262.66
2023-05-23T08:57:56.480Z,102222.72
2023-05-23T09:00:54.320Z,102274.72
2023-05-23T09:03:24.080Z,102291.53
2023-05-23T09:06:03.795Z,102287.22
2023-05-23T09:08:32.470Z,102291.56
2023-05-23T09:11:02.878Z,102276.69
2023-05-23T09:13:33.812Z,102298.88
2023-05-23T09:16:07.241Z,102311.16
2023-05-23T09:18:43.652Z,102302.06
2023-05-23T09:21:15.934Z,102308.47
2023-05-23T09:23:57.024Z,102311.16
2023-05-23T09:26:28.008Z,102313.03
2023-05-23T09:28:59.433Z,102319.28
2023-05-23T09:31:28.468Z,102203.22
2023-05-23T09:34:00.076Z,102315.69
2023-05-23T09:36:33.755Z,102313.63
2023-05-23T09:39:06.165Z,102320.47
2023-05-23T09:41:35.860Z,102314.91
2023-05-23T09:44:09.126Z,102315.56
2023-05-23T09:46:39.317Z,102319.19
2023-05-23T09:49:18.933Z,102321.72
2023-05-23T09:52:00.841Z,102328.81
2023-05-23T09:54:29.172Z,102217.47
2023-05-23T09:57:01.314Z,102339.91
2023-05-23T09:59:32.944Z,102323.91
2023-05-23T10:02:04.368Z,102322.16
2023-05-23T10:04:35.775Z,102334.44
2023-05-23T10:07:15.824Z,102341.56
2023-05-23T10:09:46.969Z,102339.19
2023-05-23T10:12:49.065Z,102343.97
2023-05-23T10:15:20.265Z,102342.34
2023-05-23T10:18:07.786Z,102337.16
2023-05-23T10:20:41.216Z,102332.09
2023-05-23T10:23:11.979Z,102334.06
2023-05-23T10:25:42.142Z,102343.03
2023-05-23T10:28:10.792Z,102349.28
2023-05-23T10:30:39.946Z,102347.50
2023-05-23T10:33:09.661Z,102349.22
2023-05-23T10:35:49.456Z,102344.09
2023-05-23T10:38:36.110Z,102218.16
2023-05-23T10:41:12.089Z,102352.13
2023-05-23T10:43:50.373Z,102348.56
2023-05-23T10:46:22.603Z,102346.72
2023-05-23T10:48:58.302Z,102330.75
2023-05-23T10:51:26.813Z,102351.09
2023-05-23T10:53:56.600Z,102348.72
2023-05-23T10:56:25.930Z,102346.78
2023-05-23T10:58:55.502Z,102359.19
2023-05-23T11:01:24.472Z,102308.41
2023-05-23T11:03:55.997Z,102356.81
2023-05-23T11:06:33.863Z,102352.38
2023-05-23T11:09:12.920Z,102346.91
2023-05-23T11:12:06.705Z,102357.56
2023-05-23T11:14:56.106Z,102350.13
2023-05-23T11:17:35.253Z,102357.13
2023-05-23T11:20:07.388Z,102348.19
2023-05-23T11:22:36.976Z,102350.69
2023-05-23T11:25:10.937Z,102353.34
2023-05-23T11:27:42.320Z,102345.09
2023-05-23T11:30:14.584Z,102356.31
2023-05-23T11:32:49.811Z,102333.06
2023-05-23T11:35:18.407Z,102358.31
2023-05-23T11:37:47.173Z,102360.00
2023-05-23T11:40:31.586Z,102342.94
2023-05-23T11:43:00.658Z,102375.22
2023-05-23T11:45:31.718Z,102369.97
2023-05-23T11:48:00.442Z,102362.41
2023-05-23T11:50:28.775Z,102360.63
2023-05-23T11:52:57.223Z,102377.22
2023-05-23T11:55:25.627Z,102364.50
2023-05-23T11:57:57.853Z,102371.66
2023-05-23T12:00:26.376Z,102368.91
2023-05-23T12:02:54.820Z,102368.75
2023-05-23T12:05:23.135Z,102367.78
2023-05-23T12:07:51.758Z,102362.41
2023-05-23T12:10:21.778Z,102366.63
2023-05-23T12:12:54.130Z,102369.13
2023-05-23T12:15:27.690Z,102378.28
2023-05-23T12:17:57.338Z,102355.25
2023-05-23T12:20:27.642Z,102376.31
2023-05-23T12:22:58.197Z,102379.06
2023-05-23T12:25:26.942Z,102378.13
2023-05-23T12:27:58.176Z,102369.31
2023-05-23T12:30:26.599Z,102370.69
2023-05-23T12:32:55.360Z,102383.88
2023-05-23T12:35:27.708Z,102379.16
2023-05-23T12:37:58.816Z,102372.59
2023-05-23T12:40:27.518Z,102365.94
2023-05-23T12:42:58.363Z,102386.34
2023-05-23T12:45:34.148Z,102297.66
2023-05-23T12:48:03.104Z,102375.75
2023-05-23T12:50:31.922Z,102383.72
2023-05-23T12:53:00.536Z,102380.22
2023-05-23T12:55:29.180Z,102380.06
2023-05-23T12:57:59.208Z,102252.44
2023-05-23T13:00:27.834Z,102377.22
2023-05-23T13:02:56.848Z,102384.25
2023-05-23T13:05:26.898Z,102368.31
2023-05-23T13:07:55.727Z,102365.66
2023-05-23T13:10:24.323Z,102371.84
2023-05-23T13:12:52.903Z,102357.94
2023-05-23T13:15:22.877Z,102375.22
2023-05-23T13:17:51.762Z,102377.28
2023-05-23T13:20:20.704Z,102378.91
2023-05-23T13:22:49.825Z,102382.41
2023-05-23T13:25:18.529Z,102375.00
2023-05-23T13:27:48.874Z,102376.72
2023-05-23T13:30:19.214Z,102376.63
2023-05-23T13:32:51.514Z,102380.16
2023-05-23T13:35:20.801Z,102377.47
2023-05-23T13:37:49.330Z,102374.75
2023-05-23T13:40:21.073Z,102379.25
2023-05-23T13:42:51.919Z,102373.59
2023-05-23T13:45:22.534Z,102385.34
2023-05-23T13:47:52.420Z,102378.22
2023-05-23T13:50:21.182Z,102382.38
2023-05-23T13:52:49.845Z,102378.00
2023-05-23T13:55:18.959Z,102394.28
2023-05-23T13:57:47.971Z,102389.72
2023-05-23T14:00:17.563Z,102389.19
2023-05-23T14:02:46.296Z,102384.75
2023-05-23T14:05:17.057Z,102378.50
2023-05-23T14:07:47.458Z,102379.06
2023-05-23T14:10:17.639Z,102371.63
2023-05-23T14:12:48.154Z,102366.22
2023-05-23T14:15:17.813Z,102371.41
2023-05-23T14:17:47.032Z,102367.72
2023-05-23T14:20:18.256Z,102366.72
2023-05-23T14:22:47.004Z,102393.38
2023-05-23T14:25:15.918Z,102358.59
2023-05-23T14:27:44.657Z,102372.16
2023-05-23T14:30:14.507Z,102368.56
2023-05-23T14:32:43.392Z,102377.50
2023-05-23T14:35:13.104Z,102367.56
2023-05-23T14:37:43.203Z,102380.00
2023-05-23T14:40:13.541Z,102374.69
2023-05-23T14:42:46.158Z,102378.56
2023-05-23T14:45:16.435Z,102382.16
2023-05-23T14:47:48.199Z,102383.78
2023-05-23T14:50:17.386Z,102383.00
2023-05-23T14:52:47.582Z,102374.00
2023-05-23T14:55:16.020Z,102384.16
2023-05-23T14:57:44.749Z,102378.81
2023-05-23T15:00:15.074Z,102370.56
2023-05-23T15:02:43.780Z,102382.16
2023-05-23T15:05:13.358Z,102386.50
2023-05-23T15:07:42.215Z,102364.00
2023-05-23T15:10:12.950Z,102392.69
2023-05-23T15:12:42.092Z,102387.22
2023-05-23T15:15:12.000Z,102381.03
2023-05-23T15:17:40.722Z,102387.47
2023-05-23T15:20:11.216Z,102395.38
2023-05-23T15:22:40.435Z,102400.59
2023-05-23T15:25:12.010Z,102398.75
2023-05-23T15:27:41.249Z,102392.41
2023-05-23T15:30:11.014Z,102394.22
2023-05-23T15:32:39.552Z,102405.91
2023-05-23T15:35:09.100Z,102387.41
2023-05-23T15:37:38.447Z,102397.16
2023-05-23T15:40:08.577Z,102391.09
2023-05-23T15:42:38.910Z,102395.63
2023-05-23T15:45:09.498Z,102400.91
2023-05-23T15:47:38.421Z,102399.13
2023-05-23T15:50:09.079Z,102402.78
2023-05-23T15:52:37.294Z,102403.69
2023-05-23T15:55:06.563Z,102405.53
2023-05-23T15:57:35.109Z,102408.25
2023-05-23T16:00:06.325Z,102408.31
2023-05-23T16:02:40.975Z,102392.47
2023-05-23T16:05:10.187Z,102404.25
2023-05-23T16:07:39.066Z,102395.22
2023-05-23T16:10:09.048Z,102397.88
2023-05-23T16:12:37.697Z,102398.78
2023-05-23T16:15:11.249Z,102390.03
2023-05-23T16:17:40.516Z,102399.94
2023-05-23T16:20:10.486Z,102395.41
2023-05-23T16:22:40.376Z,102388.38
2023-05-23T16:25:12.881Z,102392.06
2023-05-23T16:27:41.589Z,102395.69
2023-05-23T16:30:13.393Z,102391.28
2023-05-23T16:32:44.792Z,102384.09
2023-05-23T16:35:14.498Z,102368.97
2023-05-23T16:37:44.346Z,102384.03
2023-05-23T16:40:14.090Z,102379.63
2023-05-23T16:42:43.121Z,102367.28
2023-05-23T16:45:13.254Z,102365.63
2023-05-23T16:47:42.092Z,102382.44
2023-05-23T16:50:12.205Z,102384.19
2023-05-23T16:52:40.808Z,102377.03
2023-05-23T16:55:09.635Z,102374.34
2023-05-23T16:57:40.564Z,102373.44
2023-05-23T17:00:14.922Z,102369.88
2023-05-23T17:02:43.910Z,102367.16
2023-05-23T17:05:13.696Z,102374.25
2023-05-23T17:07:42.613Z,102368.91
2023-05-23T17:10:12.762Z,102373.34
2023-05-23T17:12:45.362Z,102359.06
2023-05-23T17:15:15.595Z,102381.25
2023-05-23T17:17:44.266Z,102379.47
2023-05-23T17:20:13.761Z,102374.13
2023-05-23T17:22:42.576Z,102378.59
2023-05-23T17:25:11.626Z,102380.38
2023-05-23T17:27:40.964Z,102381.25
2023-05-23T17:30:14.671Z,102294.28
2023-05-23T17:32:44.754Z,102382.19
2023-05-23T17:35:15.061Z,102385.72
2023-05-23T17:37:46.508Z,102381.28
2023-05-23T17:40:16.997Z,102384.91
2023-05-23T17:42:46.281Z,102381.41
2023-05-23T17:45:15.702Z,102377.81
2023-05-23T17:47:46.111Z,102384.94
2023-05-23T17:50:17.643Z,102386.78
2023-05-23T17:52:46.721Z,102386.81
2023-05-23T17:55:17.355Z,102390.41
2023-05-23T17:57:46.312Z,102385.03
2023-05-23T18:00:17.456Z,102393.06
2023-05-23T18:02:51.321Z,102375.31
2023-05-23T18:05:20.885Z,102404.63
2023-05-23T18:07:49.532Z,102409.97
2023-05-23T18:10:22.524Z,102426.88
2023-05-23T18:12:51.828Z,102280.25
2023-05-23T18:15:21.140Z,102400.16
2023-05-23T18:17:53.032Z,102405.59
2023-05-23T18:20:23.414Z,102404.69
2023-05-23T18:22:57.124Z,102404.72
2023-05-23T18:25:28.208Z,102398.53
2023-05-23T18:28:01.017Z,102344.34
2023-05-23T18:30:30.397Z,102397.69
2023-05-23T18:33:01.179Z,102385.22
2023-05-23T18:35:31.023Z,102389.66
2023-05-23T18:38:00.293Z,102399.47
2023-05-23T18:40:28.833Z,102394.06
2023-05-23T18:42:57.727Z,102394.13
2023-05-23T18:45:33.730Z,102390.53
2023-05-23T18:48:11.080Z,102398.56
2023-05-23T18:50:39.983Z,102383.44
2023-05-23T18:53:09.129Z,102389.66
2023-05-23T18:55:39.488Z,102392.31
2023-05-23T18:58:09.745Z,102375.47
2023-05-23T19:00:46.701Z,102397.72
2023-05-23T19:03:22.797Z,102425.28
2023-05-23T19:06:00.430Z,102411.06
2023-05-23T19:08:32.180Z,102419.06
2023-05-23T19:11:01.946Z,102426.16
2023-05-23T19:13:32.480Z,102419.03
2023-05-23T19:16:02.351Z,102337.31
2023-05-23T19:18:32.316Z,102416.38
2023-05-23T19:21:00.783Z,102415.50
2023-05-23T19:23:30.000Z,102443.97
2023-05-23T19:25:59.587Z,102422.63
2023-05-23T19:28:30.069Z,102422.63
2023-05-23T19:31:02.382Z,102427.97
2023-05-23T19:33:37.304Z,102424.41
2023-05-23T19:36:08.673Z,102418.19
2023-05-23T19:38:41.763Z,102424.41
2023-05-23T19:41:15.459Z,102421.72
2023-05-23T19:43:45.604Z,102429.75
2023-05-23T19:46:16.870Z,102434.19
2023-05-23T19:48:47.564Z,102312.41
2023-05-23T19:51:18.916Z,102448.44
2023-05-23T19:53:47.721Z,102445.75
2023-05-23T19:56:17.474Z,102443.97
2023-05-23T19:58:46.651Z,102446.66
2023-05-23T20:01:15.158Z,102455.56
2023-05-23T20:03:44.764Z,102457.34
2023-05-23T20:06:17.295Z,102463.56
2023-05-23T20:08:47.164Z,102460.91
2023-05-23T20:11:24.359Z,102461.81
2023-05-23T20:13:56.904Z,102468.91
2023-05-23T20:16:26.101Z,102462.69
2023-05-23T20:18:59.080Z,102457.34
2023-05-23T20:21:32.235Z,102460.88
2023-05-23T20:24:01.947Z,102469.81
2023-05-23T20:26:31.629Z,102452.03
2023-05-23T20:29:01.057Z,102450.22
2023-05-23T20:31:30.269Z,102434.22
2023-05-23T20:33:58.824Z,102438.69
2023-05-23T20:36:30.825Z,102436.91
2023-05-23T20:38:59.319Z,102441.34
2023-05-23T20:41:29.452Z,102445.78
2023-05-23T20:43:58.171Z,102444.03
2023-05-23T20:46:27.564Z,102444.88
2023-05-23T20:48:58.082Z,102438.69
2023-05-23T20:51:30.097Z,102444.88
2023-05-23T20:54:00.176Z,102436.88
2023-05-23T20:56:32.048Z,102444.91
2023-05-23T20:59:03.736Z,102444.91
2023-05-23T21:01:34.251Z,102440.44
2023-05-23T21:04:02.995Z,102435.09
2023-05-23T21:06:34.245Z,102436.91
2023-05-23T21:09:03.672Z,102434.25
2023-05-23T21:11:32.609Z,102436.88
2023-05-23T21:14:00.972Z,102432.44
2023-05-23T21:16:33.405Z,102430.63
2023-05-23T21:19:02.291Z,102303.47
2023-05-23T21:21:35.262Z,102429.72
2023-05-23T21:24:04.819Z,102434.22
2023-05-23T21:26:33.423Z,102430.63
2023-05-23T21:29:02.211Z,102434.19
2023-05-23T21:31:40.768Z,102434.19
2023-05-23T21:34:22.165Z,102461.75
2023-05-23T21:36:54.561Z,102438.63
2023-05-23T21:39:23.283Z,102430.63
2023-05-23T21:41:51.952Z,102439.50
2023-05-23T21:44:20.750Z,102446.69
2023-05-23T21:46:49.306Z,102465.28
2023-05-23T21:49:18.054Z,102440.41
2023-05-23T21:51:47.180Z,102441.28
2023-05-23T21:54:17.192Z,102443.94
2023-05-23T21:56:46.258Z,102435.91
2023-05-23T21:59:14.748Z,102441.25
2023-05-23T22:01:43.468Z,102440.38
2023-05-23T22:04:12.204Z,102441.25
2023-05-23T22:06:41.162Z,102442.13
2023-05-23T22:09:11.793Z,102451.00
2023-05-23T22:11:42.165Z,102447.47
2023-05-23T22:14:11.470Z,102435.84
2023-05-23T22:16:40.348Z,102440.31
2023-05-23T22:19:10.434Z,102434.09
2023-05-23T22:21:39.430Z,102427.88
2023-05-23T22:24:08.459Z,102421.63
2023-05-23T22:26:37.552Z,102421.63
2023-05-23T22:29:08.161Z,102434.09
2023-05-23T22:31:36.720Z,102427.81
2023-05-23T22:34:05.018Z,102432.28
2023-05-23T22:36:34.036Z,102443.75
2023-05-23T22:39:05.121Z,102436.66
2023-05-23T22:41:33.486Z,102426.84
2023-05-23T22:44:01.816Z,102430.41
2023-05-23T22:46:31.528Z,102433.06
2023-05-23T22:49:00.364Z,102431.31
2023-05-23T22:51:29.345Z,102424.19
2023-05-23T22:53:57.762Z,102424.19
2023-05-23T22:56:26.277Z,102426.84
2023-05-23T22:58:54.570Z,102425.91
2023-05-23T23:01:23.074Z,102415.25
2023-05-23T23:03:52.762Z,102420.59
2023-05-23T23:06:21.189Z,102419.69
2023-05-23T23:08:49.913Z,102419.69
2023-05-23T23:11:18.500Z,102419.69
2023-05-23T23:13:46.917Z,102419.69
2023-05-23T23:16:15.212Z,102418.78
2023-05-23T23:18:43.510Z,102424.16
2023-05-23T23:21:13.160Z,102429.44
2023-05-23T23:23:42.451Z,102428.53
2023-05-23T23:26:10.976Z,102345.66
2023-05-23T23:28:39.314Z,102428.50
2023-05-23T23:31:07.714Z,102403.53
2023-05-23T23:33:36.153Z,102423.19
2023-05-23T23:36:04.939Z,102425.78
2023-05-23T23:38:34.624Z,102426.59
2023-05-23T23:41:02.910Z,102423.97
2023-05-23T23:43:32.106Z,102425.72
2023-05-23T23:46:00.536Z,102415.88
2023-05-23T23:48:28.937Z,102411.41
2023-05-23T23:50:57.330Z,102414.81
2023-05-23T23:53:25.659Z,102407.59
2023-05-23T23:55:55.280Z,102407.41
2023-05-23T23:58:23.652Z,102406.72
